Time;durP1;ratioP1;P1;durP2;ratioP2;P2;SDS_P1;SDS_P2;PMS_P1;PMS_P2;Temp;Humidity;BMP_temperature;BMP_pressure;BME280_temperature;BME280_humidity;BME280_pressure;Samples;Min_cycle;Max_cycle;Signal;HPM_P1;HPM_P2
2021/12/19 00:02:16;;;;;;;;;26.00;22.00;;;;;9.64;56.88;99342.50;6122044;28;96682;-66
2021/12/19 00:08:49;;;;;;;;;26.40;24.40;;;;;9.67;56.62;99342.13;6123812;28;96651;-66
2021/12/19 00:11:54;;;;;;;;;29.00;24.67;;;;;9.69;56.58;99347.28;6122504;28;97083;-66
2021/12/19 00:15:00;;;;;;;;;32.00;27.00;;;;;9.81;56.43;99348.34;6135136;28;97689;-65
2021/12/19 00:18:04;;;;;;;;;27.00;24.00;;;;;9.76;56.33;99327.44;6129299;28;96808;-65
2021/12/19 00:21:10;;;;;;;;;28.40;25.00;;;;;9.80;56.30;99325.16;6134149;28;97420;-66
2021/12/19 00:24:16;;;;;;;;;29.60;25.80;;;;;9.81;56.06;99330.34;6138845;28;96725;-66
2021/12/19 00:27:19;;;;;;;;;27.20;26.20;;;;;9.77;56.27;99334.47;6121388;28;101924;-66
2021/12/19 00:30:22;;;;;;;;;29.40;25.60;;;;;9.85;56.04;99349.59;6139816;28;96513;-66
2021/12/19 00:33:26;;;;;;;;;29.67;25.67;;;;;9.90;55.91;99328.25;6116105;28;96998;-65
2021/12/19 00:36:31;;;;;;;;;31.50;26.50;;;;;9.74;56.19;99331.34;6134941;28;97579;-66
2021/12/19 00:39:35;;;;;;;;;29.00;26.00;;;;;9.87;55.91;99318.72;6139495;28;97534;-65
2021/12/19 00:42:38;;;;;;;;;28.00;25.00;;;;;9.96;55.83;99332.84;6119898;28;97406;-65
2021/12/19 00:45:42;;;;;;;;;26.40;22.40;;;;;10.02;55.48;99334.66;6119494;28;97117;-66
2021/12/19 00:48:47;;;;;;;;;28.00;25.40;;;;;9.88;55.75;99330.31;6134239;28;97602;-66
2021/12/19 00:51:52;;;;;;;;;24.60;23.20;;;;;9.99;55.52;99335.09;6136936;28;98482;-66
2021/12/19 00:54:55;;;;;;;;;24.60;22.60;;;;;9.95;55.45;99323.91;6120313;28;98044;-66
2021/12/19 00:57:58;;;;;;;;;24.40;23.00;;;;;10.07;55.35;99323.31;6101405;28;97816;-66
2021/12/19 01:01:02;;;;;;;;;28.00;23.00;;;;;10.19;55.11;99325.19;6134854;28;97111;-66
2021/12/19 01:04:10;;;;;;;;;24.40;22.40;;;;;10.29;54.78;99319.38;6125929;28;96734;-66
2021/12/19 01:07:15;;;;;;;;;24.00;22.50;;;;;10.23;54.49;99321.03;6131138;28;99443;-66
2021/12/19 01:10:18;;;;;;;;;24.00;21.00;;;;;10.24;54.60;99293.03;6118057;28;96721;-67
2021/12/19 01:13:22;;;;;;;;;25.50;22.25;;;;;10.00;54.93;99296.34;6119600;28;97559;-66
2021/12/19 01:16:25;;;;;;;;;22.00;19.00;;;;;10.05;54.88;99296.56;6125807;28;96690;-66
2021/12/19 01:19:29;;;;;;;;;20.50;16.75;;;;;9.99;54.90;99283.91;6124945;28;96652;-67
2021/12/19 01:22:33;;;;;;;;;20.00;17.00;;;;;10.09;54.74;99270.03;6144484;28;96726;-65
2021/12/19 01:25:37;;;;;;;;;21.00;19.00;;;;;10.01;54.87;99249.53;6132211;28;97407;-65
2021/12/19 01:28:42;;;;;;;;;18.00;17.20;;;;;10.04;54.76;99232.13;6119733;28;96273;-65
2021/12/19 01:31:45;;;;;;;;;21.80;17.00;;;;;9.90;54.97;99253.69;6116638;28;98663;-65
2021/12/19 01:34:48;;;;;;;;;20.40;19.00;;;;;9.95;54.85;99231.50;6108148;28;96686;-65
2021/12/19 01:37:54;;;;;;;;;19.60;18.00;;;;;10.06;54.82;99235.44;6114021;28;96501;-66
2021/12/19 01:40:57;;;;;;;;;18.00;16.00;;;;;9.97;54.96;99215.94;6131783;28;96486;-65
2021/12/19 01:44:01;;;;;;;;;19.40;18.40;;;;;9.82;55.13;99213.47;6124818;28;96733;-64
2021/12/19 01:47:05;;;;;;;;;17.00;15.00;;;;;9.78;55.45;99184.50;6125006;28;96674;-65
2021/12/19 01:50:10;;;;;;;;;16.00;13.00;;;;;9.78;55.45;99195.25;6104145;28;97890;-66
2021/12/19 01:53:15;;;;;;;;;17.00;15.00;;;;;9.74;55.71;99178.72;6137765;28;97639;-65
2021/12/19 01:56:18;;;;;;;;;13.00;11.00;;;;;9.72;55.83;99172.72;6136161;28;97559;-65
2021/12/19 01:59:22;;;;;;;;;15.40;14.00;;;;;9.70;55.92;99182.84;6121180;28;97452;-65
2021/12/19 02:02:26;;;;;;;;;14.00;13.00;;;;;9.69;56.12;99156.97;6130714;28;97565;-65
2021/12/19 02:05:29;;;;;;;;;13.20;12.80;;;;;9.72;56.14;99153.03;6119339;28;96934;-65
2021/12/19 02:08:34;;;;;;;;;16.40;14.40;;;;;9.82;56.10;99150.75;6118485;28;98024;-65
2021/12/19 02:11:39;;;;;;;;;16.20;14.60;;;;;9.68;56.40;99149.91;6118083;28;97755;-65
2021/12/19 02:14:44;;;;;;;;;16.75;16.00;;;;;9.60;56.71;99149.31;6123471;28;97457;-66
2021/12/19 02:17:49;;;;;;;;;14.00;13.60;;;;;9.60;56.95;99142.06;6135641;28;97784;-65
2021/12/19 02:20:57;;;;;;;;;16.50;14.25;;;;;9.54;56.87;99157.19;6119617;28;96607;-65
2021/12/19 02:24:03;;;;;;;;;14.60;14.40;;;;;9.58;56.84;99155.72;6140263;28;96880;-66
2021/12/19 02:27:06;;;;;;;;;16.00;15.25;;;;;9.63;57.02;99157.78;6121665;28;97131;-65
2021/12/19 02:30:12;;;;;;;;;17.60;15.60;;;;;9.52;57.22;99155.75;6124566;28;97045;-65
2021/12/19 02:33:20;;;;;;;;;15.00;14.00;;;;;9.70;56.78;99152.41;6135933;28;97504;-65
2021/12/19 02:36:39;;;;;;;;;15.60;14.60;;;;;9.89;56.35;99133.53;6118084;28;97053;-65
2021/12/19 02:40:05;;;;;;;;;16.80;14.80;;;;;9.73;56.70;99119.69;6120878;28;97572;-65
2021/12/19 02:49:50;;;;;;;;;13.80;11.00;;;;;9.66;57.22;99089.28;6124603;28;97469;-65
2021/12/19 02:52:55;;;;;;;;;14.67;12.67;;;;;9.61;57.43;99072.91;6142144;28;97141;-66
2021/12/19 02:55:58;;;;;;;;;13.60;12.00;;;;;9.36;58.15;99062.81;6125882;28;96503;-66
2021/12/19 02:59:01;;;;;;;;;13.00;12.00;;;;;9.45;58.00;99066.13;6125052;28;97381;-65
2021/12/19 03:02:05;;;;;;;;;13.20;12.20;;;;;9.54;57.93;99052.22;6121153;28;97503;-65
2021/12/19 03:05:09;;;;;;;;;13.00;11.00;;;;;9.46;58.07;99059.69;6128683;28;98258;-65
2021/12/19 03:08:15;;;;;;;;;11.33;11.00;;;;;9.56;57.89;99057.41;6134514;28;97861;-65
2021/12/19 03:18:05;;;;;;;;;11.75;10.75;;;;;9.44;58.00;99035.69;6140264;28;97418;-66
2021/12/19 03:21:13;;;;;;;;;10.25;9.00;;;;;9.51;58.04;99024.91;6129364;28;97063;-66
2021/12/19 03:24:18;;;;;;;;;11.00;10.00;;;;;9.57;57.81;99019.53;6135862;28;97375;-65
2021/12/19 03:27:21;;;;;;;;;14.00;12.00;;;;;9.54;57.80;99000.25;6127842;28;97499;-65
2021/12/19 03:30:25;;;;;;;;;12.00;11.00;;;;;9.50;58.19;99007.09;6127209;28;98048;-65
2021/12/19 03:33:28;;;;;;;;;13.00;10.00;;;;;9.52;58.09;99008.56;6124152;28;96876;-65
2021/12/19 03:36:32;;;;;;;;;13.00;11.00;;;;;9.61;57.91;98986.78;6114075;28;98607;-65
2021/12/19 03:39:54;;;;;;;;;10.00;8.00;;;;;9.44;58.22;98972.97;6116668;28;96507;-65
2021/12/19 03:42:58;;;;;;;;;11.60;10.00;;;;;9.39;57.98;98941.31;6139942;28;96849;-65
2021/12/19 03:46:01;;;;;;;;;11.20;9.60;;;;;9.46;58.19;98950.19;6114703;28;97024;-65
2021/12/19 03:49:05;;;;;;;;;9.00;9.00;;;;;9.48;58.09;98950.78;6124638;28;97721;-65
2021/12/19 03:52:08;;;;;;;;;10.00;9.00;;;;;9.46;58.38;98941.28;6142026;28;97456;-65
2021/12/19 03:55:13;;;;;;;;;13.00;11.40;;;;;9.28;58.61;98931.22;6139325;28;99449;-65
2021/12/19 03:58:17;;;;;;;;;12.00;11.00;;;;;9.66;58.04;98939.34;6141310;28;97145;-66
2021/12/19 04:01:21;;;;;;;;;11.00;10.00;;;;;9.55;58.04;98934.63;6125647;28;96527;-65
2021/12/19 04:04:24;;;;;;;;;8.20;8.20;;;;;9.72;57.59;98934.97;6130651;28;97284;-64
2021/12/19 04:07:29;;;;;;;;;12.00;10.00;;;;;9.82;57.27;98932.66;6133199;28;96792;-65
2021/12/19 04:10:33;;;;;;;;;9.20;8.20;;;;;9.92;57.15;98922.22;6137084;28;96722;-64
2021/12/19 04:13:37;;;;;;;;;10.20;10.00;;;;;9.96;56.94;98905.44;6141666;28;96501;-64
2021/12/19 04:16:42;;;;;;;;;11.50;10.50;;;;;9.99;56.71;98904.97;6118034;28;97412;-65
2021/12/19 04:19:46;;;;;;;;;10.00;8.00;;;;;9.81;56.61;98907.59;6127181;28;96587;-65
2021/12/19 04:22:52;;;;;;;;;9.00;8.00;;;;;9.99;56.81;98898.75;6122480;28;98344;-65
2021/12/19 04:25:56;;;;;;;;;7.00;7.00;;;;;10.04;56.53;98903.50;6131492;28;97567;-65
2021/12/19 04:28:59;;;;;;;;;10.00;9.00;;;;;9.96;56.60;98891.13;6123053;28;96608;-64
2021/12/19 04:32:04;;;;;;;;;9.40;8.00;;;;;10.04;56.54;98884.63;6117579;28;97502;-65
2021/12/19 04:35:09;;;;;;;;;9.00;8.40;;;;;9.96;56.68;98872.28;6132755;28;96941;-65
2021/12/19 04:55:25;;;;;;;;;9.00;9.00;;;;;9.83;56.74;98842.72;6066400;28;97680;-65
2021/12/19 05:02:10;;;;;;;;;8.75;8.00;;;;;9.91;56.28;98827.16;6080519;28;97640;-65
2021/12/19 05:05:28;;;;;;;;;9.00;9.00;;;;;10.17;56.05;98831.50;6077560;28;98224;-66
2021/12/19 05:15:13;;;;;;;;;8.80;6.80;;;;;10.12;55.85;98846.66;6043121;28;97032;-65
2021/12/19 05:18:18;;;;;;;;;9.00;8.00;;;;;10.06;55.80;98843.00;6084765;28;96838;-65
2021/12/19 05:21:26;;;;;;;;;8.60;7.60;;;;;10.12;55.97;98838.56;6069201;28;97229;-66
2021/12/19 05:25:00;;;;;;;;;8.00;8.00;;;;;10.21;55.65;98838.13;6101729;28;96772;-66
2021/12/19 05:28:04;;;;;;;;;7.80;7.00;;;;;10.40;55.28;98831.75;6135786;28;97519;-66
2021/12/19 05:31:08;;;;;;;;;7.40;6.60;;;;;10.45;55.38;98827.53;6138528;28;97525;-66
2021/12/19 05:34:12;;;;;;;;;8.00;8.00;;;;;10.34;55.68;98816.44;6138810;28;96788;-66
2021/12/19 05:45:12;;;;;;;;;8.00;8.00;;;;;10.18;56.09;98797.31;6144257;28;96783;-65
2021/12/19 05:47:41;;;;;;;;;9.40;9.00;;;;;10.21;55.77;98802.28;6158398;28;98060;-65
2021/12/19 05:50:45;;;;;;;;;6.40;6.40;;;;;10.21;56.06;98807.66;6143234;28;97475;-65
2021/12/19 05:53:48;;;;;;;;;9.00;8.00;;;;;10.22;56.05;98799.34;6145748;28;97283;-65
2021/12/19 05:56:52;;;;;;;;;7.00;7.00;;;;;10.12;56.05;98799.00;6143210;28;99743;-66
2021/12/19 05:59:55;;;;;;;;;7.40;7.40;;;;;10.20;55.83;98811.41;6158711;28;97788;-64
2021/12/19 06:03:01;;;;;;;;;8.00;7.00;;;;;10.19;55.84;98820.53;6141536;28;97354;-65
2021/12/19 06:06:05;;;;;;;;;8.00;7.00;;;;;10.24;55.42;98823.38;6142459;28;97944;-65
2021/12/19 06:09:08;;;;;;;;;9.60;8.00;;;;;10.30;55.39;98815.25;6140940;28;97448;-65
2021/12/19 06:12:12;;;;;;;;;9.60;8.00;;;;;10.27;55.08;98820.22;6156120;28;98297;-65
2021/12/19 06:15:15;;;;;;;;;8.25;8.00;;;;;10.13;55.10;98797.13;6159121;28;96920;-65
2021/12/19 06:18:20;;;;;;;;;9.00;9.00;;;;;10.39;54.76;98826.56;6143892;28;96908;-65
2021/12/19 06:21:23;;;;;;;;;8.80;8.00;;;;;10.10;55.31;98811.88;6141410;28;97446;-65
2021/12/19 06:24:27;;;;;;;;;9.00;8.00;;;;;10.31;54.75;98798.00;6139257;28;96694;-66
2021/12/19 06:27:30;;;;;;;;;10.60;9.60;;;;;10.25;54.73;98800.78;6144454;28;96356;-65
2021/12/19 06:30:33;;;;;;;;;10.00;9.00;;;;;10.23;54.35;98778.63;6143608;28;96397;-65
2021/12/19 06:33:38;;;;;;;;;10.00;9.00;;;;;10.23;54.21;98781.31;6141962;28;98094;-65
2021/12/19 06:36:41;;;;;;;;;8.00;7.00;;;;;10.10;54.27;98784.94;6141413;28;98732;-65
2021/12/19 06:39:45;;;;;;;;;9.00;8.00;;;;;10.25;54.22;98787.31;6140999;28;98078;-65
2021/12/19 06:42:48;;;;;;;;;10.00;8.60;;;;;10.36;53.77;98775.81;6144878;28;96918;-65
2021/12/19 06:45:52;;;;;;;;;9.40;9.00;;;;;10.40;53.44;98777.84;6124382;28;96696;-65
2021/12/19 06:48:57;;;;;;;;;9.75;8.00;;;;;10.50;53.28;98771.94;6156253;28;99647;-65
2021/12/19 06:52:00;;;;;;;;;10.60;9.00;;;;;10.52;52.96;98763.59;6140071;28;97486;-66
2021/12/19 06:55:05;;;;;;;;;10.00;8.00;;;;;10.46;52.81;98759.94;6142325;28;96421;-65
2021/12/19 06:58:08;;;;;;;;;10.40;9.40;;;;;10.40;52.87;98753.59;6144192;28;96590;-65
2021/12/19 07:01:11;;;;;;;;;10.40;9.00;;;;;10.53;52.65;98747.22;6143280;28;97533;-64
2021/12/19 07:04:16;;;;;;;;;10.00;8.80;;;;;10.61;52.48;98749.59;6141004;28;96527;-65
2021/12/19 07:07:21;;;;;;;;;10.25;8.25;;;;;10.64;52.28;98753.72;6139999;28;97288;-65
2021/12/19 07:10:24;;;;;;;;;9.40;9.00;;;;;10.43;52.47;98755.81;6126210;28;96880;-66
2021/12/19 07:13:28;;;;;;;;;7.00;7.00;;;;;10.56;52.44;98743.22;6144084;28;97428;-66
2021/12/19 07:16:31;;;;;;;;;8.60;8.00;;;;;10.66;52.12;98746.22;6138731;28;96795;-65
2021/12/19 07:19:36;;;;;;;;;10.40;10.00;;;;;10.68;51.94;98750.34;6142041;28;96389;-66
2021/12/19 07:22:41;;;;;;;;;9.00;8.00;;;;;10.51;52.46;98722.34;6141498;28;97532;-65
2021/12/19 07:25:45;;;;;;;;;9.00;9.00;;;;;10.48;52.59;98725.50;6139892;28;96535;-66
2021/12/19 07:28:49;;;;;;;;;8.00;8.00;;;;;10.57;52.64;98728.72;6123424;28;97902;-66
2021/12/19 07:31:53;;;;;;;;;9.60;8.60;;;;;10.63;52.34;98735.91;6141156;28;97882;-65
2021/12/19 07:34:57;;;;;;;;;9.00;8.00;;;;;10.69;51.98;98722.34;6135806;28;97390;-66
2021/12/19 07:38:03;;;;;;;;;13.00;11.00;;;;;10.75;51.91;98716.03;6142614;28;96681;-65
2021/12/19 07:41:06;;;;;;;;;10.60;9.00;;;;;10.74;51.86;98718.97;6119336;28;98365;-66
2021/12/19 07:44:12;;;;;;;;;10.00;9.50;;;;;10.80;51.76;98728.81;6138915;28;97727;-65
2021/12/19 07:47:16;;;;;;;;;10.00;9.00;;;;;10.90;51.77;98718.31;6140316;28;97041;-66
2021/12/19 07:50:21;;;;;;;;;9.60;9.00;;;;;10.75;51.54;98718.72;6138260;28;97780;-66
2021/12/19 07:53:24;;;;;;;;;10.00;9.00;;;;;10.95;51.57;98721.16;6138889;28;96744;-66
2021/12/19 07:56:28;;;;;;;;;11.00;10.00;;;;;10.83;51.86;98740.00;6138698;28;97497;-66
2021/12/19 07:59:31;;;;;;;;;9.40;9.00;;;;;10.76;52.04;98754.59;6139792;28;97165;-65
2021/12/19 08:02:34;;;;;;;;;10.00;9.80;;;;;10.72;52.26;98756.13;6139131;28;96962;-65
2021/12/19 08:05:39;;;;;;;;;12.00;10.50;;;;;10.75;52.71;98767.25;6138637;28;98046;-66
2021/12/19 08:08:47;;;;;;;;;10.40;10.00;;;;;10.69;52.48;98743.09;6137276;28;97045;-65
2021/12/19 08:11:51;;;;;;;;;11.00;10.00;;;;;10.66;52.89;98744.34;6140392;28;97389;-65
2021/12/19 08:14:55;;;;;;;;;12.40;11.40;;;;;10.73;52.96;98760.47;6139224;28;97677;-66
2021/12/19 08:17:58;;;;;;;;;11.00;10.00;;;;;10.77;53.03;98756.25;6141255;28;97186;-66
2021/12/19 08:21:03;;;;;;;;;11.00;9.20;;;;;10.64;53.34;98764.50;6141666;28;97417;-66
2021/12/19 08:24:11;;;;;;;;;11.20;10.20;;;;;10.76;53.53;98760.00;6123832;28;96650;-65
2021/12/19 08:27:14;;;;;;;;;13.00;11.40;;;;;10.52;54.10;98747.44;6140993;28;96965;-66
2021/12/19 08:30:20;;;;;;;;;13.20;12.00;;;;;10.66;54.40;98757.84;6117366;28;97191;-65
2021/12/19 08:33:23;;;;;;;;;13.00;13.00;;;;;10.71;54.66;98771.47;6141183;28;97568;-66
2021/12/19 08:36:28;;;;;;;;;12.40;12.00;;;;;10.83;54.60;98771.53;6122160;28;98380;-65
2021/12/19 08:39:33;;;;;;;;;13.40;12.00;;;;;10.75;54.82;98772.66;6141706;28;96387;-65
2021/12/19 08:42:37;;;;;;;;;13.00;13.00;;;;;10.73;55.17;98776.63;6122400;28;96551;-66
2021/12/19 08:45:40;;;;;;;;;14.00;13.00;;;;;10.86;54.81;98771.06;6133906;28;96475;-66
2021/12/19 08:48:45;;;;;;;;;11.00;11.00;;;;;10.98;54.69;98771.97;6140296;28;97489;-66
2021/12/19 08:51:50;;;;;;;;;11.00;10.50;;;;;10.95;54.85;98768.88;6123475;28;98527;-65
2021/12/19 08:54:53;;;;;;;;;13.00;12.00;;;;;11.02;54.60;98769.66;6138042;28;97526;-67
2021/12/19 08:57:56;;;;;;;;;13.67;13.00;;;;;11.10;54.63;98770.16;6141413;28;97465;-66
2021/12/19 09:01:01;;;;;;;;;14.00;12.00;;;;;11.06;54.48;98760.88;6141729;28;96742;-66
2021/12/19 09:04:05;;;;;;;;;13.00;11.60;;;;;11.06;54.74;98755.47;6140672;28;97361;-65
2021/12/19 09:07:10;;;;;;;;;13.00;12.00;;;;;11.10;54.80;98747.75;6138810;28;99439;-65
2021/12/19 09:10:14;;;;;;;;;10.20;10.20;;;;;11.06;54.54;98741.97;6139632;28;97497;-65
2021/12/19 09:13:17;;;;;;;;;13.20;12.60;;;;;11.05;54.90;98739.50;6141813;28;96698;-66
2021/12/19 09:16:21;;;;;;;;;13.00;13.00;;;;;11.05;54.87;98729.53;6145127;28;96564;-64
2021/12/19 09:19:44;;;;;;;;;14.25;13.00;;;;;11.13;54.95;98721.16;6143290;28;96611;-65
2021/12/19 09:22:48;;;;;;;;;13.25;12.25;;;;;11.14;54.79;98717.38;6120966;28;99554;-65
2021/12/19 09:25:53;;;;;;;;;15.25;14.00;;;;;11.11;55.10;98720.53;6142181;28;96464;-66
2021/12/19 09:28:56;;;;;;;;;16.00;15.00;;;;;11.02;55.12;98718.38;6140567;28;98068;-67
2021/12/19 09:32:00;;;;;;;;;14.00;13.00;;;;;11.11;55.02;98712.44;6125043;28;97481;-66
2021/12/19 09:35:03;;;;;;;;;13.00;13.00;;;;;11.09;54.88;98719.94;6107461;28;98464;-66
2021/12/19 09:38:08;;;;;;;;;18.40;15.40;;;;;10.95;55.22;98707.69;6140544;28;96937;-67
2021/12/19 09:41:14;;;;;;;;;15.75;13.75;;;;;10.96;55.22;98709.34;6142063;28;97497;-66
2021/12/19 09:44:18;;;;;;;;;16.40;14.00;;;;;11.03;55.23;98707.38;6140707;28;96741;-67
2021/12/19 09:47:22;;;;;;;;;16.00;14.00;;;;;10.96;55.15;98700.41;6137346;28;97977;-66
2021/12/19 09:50:26;;;;;;;;;14.00;14.00;;;;;11.07;55.19;98695.06;6140411;28;97202;-66
2021/12/19 09:53:30;;;;;;;;;15.00;13.00;;;;;11.15;55.18;98692.03;6125392;28;96643;-65
2021/12/19 09:56:34;;;;;;;;;15.40;13.40;;;;;11.12;55.17;98691.69;6143038;28;97541;-66
2021/12/19 09:59:38;;;;;;;;;13.00;12.60;;;;;11.16;54.94;98690.16;6142440;28;97213;-66
2021/12/19 10:02:41;;;;;;;;;12.00;12.00;;;;;11.15;54.98;98675.84;6123784;28;96614;-67
2021/12/19 10:05:45;;;;;;;;;13.60;13.00;;;;;11.23;54.72;98685.50;6142217;28;97003;-66
2021/12/19 10:09:07;;;;;;;;;15.40;11.40;;;;;11.25;54.52;98678.81;6124161;28;99622;-66
2021/12/19 10:12:25;;;;;;;;;15.20;13.60;;;;;11.18;54.88;98675.41;6136569;28;96687;-66
2021/12/19 10:15:32;;;;;;;;;13.60;11.40;;;;;11.26;54.79;98668.84;6138971;28;99532;-67
2021/12/19 10:18:50;;;;;;;;;16.20;13.00;;;;;11.20;54.86;98659.78;6140550;28;97390;-66
2021/12/19 10:21:53;;;;;;;;;14.50;13.00;;;;;11.17;55.09;98627.88;6139791;28;99666;-65
2021/12/19 10:25:14;;;;;;;;;14.40;14.00;;;;;11.31;55.01;98633.88;6122731;28;97050;-66
2021/12/19 10:28:17;;;;;;;;;15.00;13.00;;;;;11.38;54.87;98633.78;6138900;28;96662;-65
2021/12/19 10:31:21;;;;;;;;;15.00;12.60;;;;;11.47;54.72;98617.03;6139710;28;98735;-66
2021/12/19 10:34:25;;;;;;;;;13.25;11.25;;;;;11.39;54.66;98628.13;6143443;28;97559;-65
2021/12/19 10:37:34;;;;;;;;;14.60;12.60;;;;;11.48;54.70;98610.56;6124625;28;98096;-66
2021/12/19 10:40:39;;;;;;;;;10.20;10.20;;;;;11.38;54.73;98602.22;6142236;28;96816;-65
2021/12/19 10:43:45;;;;;;;;;10.20;10.00;;;;;11.34;54.85;98603.72;6143788;28;97535;-66
2021/12/19 10:46:48;;;;;;;;;14.00;12.00;;;;;11.49;54.53;98604.09;6142072;28;96488;-65
2021/12/19 10:49:52;;;;;;;;;11.50;10.50;;;;;11.58;54.38;98596.50;6142955;28;96540;-66
2021/12/19 10:53:05;;;;;;;;;14.00;13.00;;;;;11.64;54.14;98587.41;6139562;28;96879;-66
2021/12/19 10:56:12;;;;;;;;;11.50;9.50;;;;;11.69;54.03;98582.97;6141175;28;96670;-66
2021/12/19 10:59:17;;;;;;;;;10.00;10.00;;;;;11.71;53.54;98577.34;6124411;28;96503;-66
2021/12/19 11:02:35;;;;;;;;;14.00;12.00;;;;;11.70;53.43;98584.59;6140563;28;97256;-65
2021/12/19 11:05:41;;;;;;;;;10.40;10.00;;;;;11.77;53.23;98578.31;6140443;28;97101;-66
2021/12/19 11:08:45;;;;;;;;;11.00;10.00;;;;;11.83;53.17;98570.06;6124754;28;97299;-65
2021/12/19 11:11:55;;;;;;;;;11.00;10.75;;;;;11.75;52.98;98556.09;6141855;28;96769;-66
2021/12/19 11:14:58;;;;;;;;;11.00;10.00;;;;;11.73;53.20;98563.63;6140401;28;96789;-66
2021/12/19 11:18:02;;;;;;;;;9.80;9.80;;;;;11.69;53.14;98552.44;6124247;28;98318;-66
2021/12/19 11:21:05;;;;;;;;;10.00;9.00;;;;;11.82;52.93;98549.53;6139983;28;96614;-66
2021/12/19 11:24:10;;;;;;;;;9.00;9.00;;;;;11.69;53.07;98545.16;6138208;28;97266;-66
2021/12/19 11:27:15;;;;;;;;;11.40;10.00;;;;;11.66;53.14;98548.34;6140892;28;96549;-66
2021/12/19 11:30:19;;;;;;;;;8.25;7.75;;;;;11.64;53.61;98541.50;6141134;28;97130;-66
2021/12/19 11:33:39;;;;;;;;;11.00;9.00;;;;;11.67;53.57;98525.69;6139621;28;97038;-66
2021/12/19 11:36:46;;;;;;;;;9.00;9.00;;;;;11.81;53.08;98525.44;6141416;28;96870;-66
2021/12/19 11:39:52;;;;;;;;;9.33;9.33;;;;;11.85;52.78;98522.03;6140760;28;97300;-65
2021/12/19 11:43:03;;;;;;;;;9.00;9.00;;;;;11.86;52.35;98509.34;6125330;28;97119;-66
2021/12/19 11:46:14;;;;;;;;;8.25;8.00;;;;;11.86;52.27;98506.66;6140553;28;96668;-66
2021/12/19 11:49:21;;;;;;;;;8.80;7.80;;;;;11.95;52.05;98503.34;6139780;28;97257;-66
2021/12/19 11:52:30;;;;;;;;;10.00;8.75;;;;;11.99;52.07;98495.56;6139760;28;96743;-66
2021/12/19 11:55:37;;;;;;;;;9.00;8.00;;;;;11.96;52.09;98496.06;6137187;28;97927;-65
2021/12/19 11:58:46;;;;;;;;;7.75;7.00;;;;;11.99;51.51;98490.97;6140954;28;97455;-65
2021/12/19 12:01:50;;;;;;;;;7.60;7.00;;;;;11.93;51.28;98488.41;6122592;28;100739;-66
2021/12/19 12:05:20;;;;;;;;;5.67;5.67;;;;;12.00;50.92;98489.09;6138876;28;97206;-67
2021/12/19 12:08:26;;;;;;;;;6.00;5.75;;;;;12.00;50.12;98479.13;6138799;28;98062;-65
2021/12/19 12:11:29;;;;;;;;;6.00;6.00;;;;;12.07;50.17;98487.09;6139226;28;97552;-66
2021/12/19 12:14:39;;;;;;;;;5.00;4.00;;;;;11.99;50.48;98482.88;6138517;28;96706;-66
2021/12/19 12:17:50;;;;;;;;;6.00;5.60;;;;;11.98;50.36;98472.31;6141214;28;97121;-65
2021/12/19 12:20:54;;;;;;;;;6.00;5.40;;;;;11.93;50.26;98464.91;6139797;28;96529;-66
2021/12/19 12:24:00;;;;;;;;;5.00;4.00;;;;;11.81;50.27;98453.34;6139488;28;96926;-65
2021/12/19 12:27:05;;;;;;;;;6.20;5.20;;;;;11.73;50.17;98423.22;6140360;28;96636;-65
2021/12/19 12:30:12;;;;;;;;;6.00;5.00;;;;;12.10;49.80;98470.38;6122158;28;98753;-66
2021/12/19 12:33:21;;;;;;;;;5.00;5.00;;;;;12.10;49.60;98457.69;6123991;28;97252;-66
2021/12/19 12:36:25;;;;;;;;;7.50;7.00;;;;;12.21;49.80;98457.88;6121539;28;98470;-67
2021/12/19 12:39:37;;;;;;;;;6.60;6.40;;;;;12.17;50.33;98452.13;6121967;28;99675;-66
2021/12/19 12:43:02;;;;;;;;;10.00;9.00;;;;;12.17;50.20;98440.53;6138332;28;98790;-67
2021/12/19 12:46:14;;;;;;;;;9.00;8.20;;;;;12.17;50.65;98443.22;6140336;28;97796;-65
2021/12/19 12:49:19;;;;;;;;;10.00;10.00;;;;;12.13;51.51;98442.88;6143610;28;96865;-69
2021/12/19 12:52:23;;;;;;;;;9.60;9.60;;;;;12.09;51.79;98444.41;6144923;28;96555;-66
2021/12/19 12:55:26;;;;;;;;;9.75;9.75;;;;;12.10;52.13;98438.78;6143229;28;96745;-67
2021/12/19 12:58:35;;;;;;;;;9.00;8.25;;;;;12.03;52.27;98438.09;6126768;28;97764;-66
2021/12/19 13:01:44;;;;;;;;;10.00;9.50;;;;;11.95;52.48;98438.50;6146258;28;97477;-66
2021/12/19 13:04:50;;;;;;;;;9.60;9.20;;;;;11.89;52.40;98431.34;6143965;28;97110;-67
2021/12/19 13:07:53;;;;;;;;;8.00;8.00;;;;;11.85;52.75;98426.66;6145358;28;96840;-65
2021/12/19 13:10:58;;;;;;;;;9.00;7.60;;;;;11.73;53.31;98421.31;6129757;28;97469;-65
2021/12/19 13:14:11;;;;;;;;;8.40;7.40;;;;;11.77;53.09;98425.19;6144658;28;96606;-66
2021/12/19 13:17:17;;;;;;;;;8.20;6.80;;;;;11.59;52.53;98423.44;6145060;28;96804;-67
2021/12/19 13:20:23;;;;;;;;;5.00;5.00;;;;;11.69;52.74;98422.81;6142128;28;97562;-65
2021/12/19 13:23:26;;;;;;;;;5.00;4.00;;;;;11.28;52.54;98408.50;6142599;28;97622;-66
2021/12/19 13:26:31;;;;;;;;;5.00;4.00;;;;;11.77;52.36;98414.38;6140357;28;97019;-66
2021/12/19 13:29:35;;;;;;;;;4.80;4.00;;;;;11.69;51.44;98414.72;6141231;28;97586;-68
2021/12/19 13:32:42;;;;;;;;;3.00;3.00;;;;;11.60;51.66;98408.88;6139575;28;96629;-65
2021/12/19 13:35:47;;;;;;;;;3.80;3.80;;;;;11.59;51.75;98398.31;6137202;28;97716;-66
2021/12/19 13:38:53;;;;;;;;;5.00;4.00;;;;;11.52;51.64;98390.38;6140646;28;96665;-67
2021/12/19 13:42:06;;;;;;;;;6.00;5.00;;;;;11.38;51.73;98377.41;6143338;28;96446;-66
2021/12/19 13:45:28;;;;;;;;;5.00;4.00;;;;;11.39;51.93;98374.44;6140968;28;97896;-65
2021/12/19 13:48:35;;;;;;;;;7.33;6.33;;;;;11.40;51.89;98369.84;6139046;28;97197;-67
2021/12/19 13:51:38;;;;;;;;;8.00;7.00;;;;;11.29;52.05;98363.44;6139585;28;96630;-67
2021/12/19 13:54:42;;;;;;;;;6.00;6.00;;;;;11.34;52.14;98368.94;6140753;28;97500;-65
2021/12/19 13:57:47;;;;;;;;;8.00;8.00;;;;;11.29;52.45;98358.84;6142647;28;97985;-67
2021/12/19 14:00:52;;;;;;;;;8.00;8.00;;;;;11.33;52.10;98359.22;6141742;28;96357;-67
2021/12/19 14:03:59;;;;;;;;;7.00;7.00;;;;;11.40;51.87;98359.06;6137987;28;96790;-66
2021/12/19 14:07:10;;;;;;;;;7.00;7.00;;;;;11.35;52.22;98356.25;6138471;28;97956;-66
2021/12/19 14:10:29;;;;;;;;;9.00;8.20;;;;;11.22;52.28;98349.28;6136083;28;97051;-66
2021/12/19 14:13:35;;;;;;;;;11.00;10.00;;;;;11.20;52.70;98348.69;6140864;28;97422;-65
2021/12/19 14:16:42;;;;;;;;;10.00;9.00;;;;;11.15;52.95;98346.69;6141675;28;97499;-68
2021/12/19 14:19:53;;;;;;;;;11.00;8.25;;;;;11.25;53.54;98346.09;6124073;28;96935;-67
2021/12/19 14:23:15;;;;;;;;;9.00;8.00;;;;;11.09;53.16;98336.84;6142807;28;97453;-66
2021/12/19 14:26:25;;;;;;;;;7.00;7.00;;;;;11.07;53.33;98330.06;6138491;28;98482;-68
2021/12/19 14:29:29;;;;;;;;;6.00;6.00;;;;;10.90;53.79;98338.06;6138776;28;97463;-67
2021/12/19 14:32:36;;;;;;;;;7.00;7.00;;;;;11.00;53.58;98334.75;6140455;28;96615;-65
2021/12/19 14:35:42;;;;;;;;;6.00;6.00;;;;;11.06;53.21;98341.91;6139022;28;96649;-65
2021/12/19 14:38:45;;;;;;;;;7.00;7.00;;;;;11.03;53.06;98326.22;6142817;28;96630;-66
2021/12/19 14:41:49;;;;;;;;;7.00;6.40;;;;;10.99;53.06;98322.34;6141154;28;96681;-66
2021/12/19 14:44:57;;;;;;;;;6.80;6.80;;;;;10.93;53.11;98302.56;6139316;28;97664;-64
2021/12/19 14:48:02;;;;;;;;;6.00;5.80;;;;;10.96;53.08;98306.63;6140175;28;96565;-66
2021/12/19 14:51:09;;;;;;;;;8.00;6.00;;;;;10.98;52.75;98315.31;6140294;28;97500;-64
2021/12/19 14:54:13;;;;;;;;;5.00;5.00;;;;;10.91;52.83;98306.53;6138562;28;97628;-65
2021/12/19 14:57:19;;;;;;;;;8.00;8.00;;;;;10.87;52.87;98311.59;6121754;28;97842;-66
2021/12/19 15:00:23;;;;;;;;;8.00;7.00;;;;;10.83;52.82;98307.72;6141821;28;97693;-65
2021/12/19 15:03:29;;;;;;;;;7.00;6.00;;;;;10.74;53.10;98306.47;6142216;28;96961;-68
2021/12/19 15:06:39;;;;;;;;;5.00;5.00;;;;;10.74;53.37;98301.88;6142522;28;96466;-66
2021/12/19 15:09:44;;;;;;;;;9.50;8.00;;;;;10.68;53.80;98292.03;6123292;28;97119;-67
2021/12/19 15:12:48;;;;;;;;;7.00;7.00;;;;;10.82;53.66;98298.81;6139862;28;97547;-66
2021/12/19 15:15:54;;;;;;;;;9.00;8.00;;;;;10.86;53.61;98310.75;6135002;28;96953;-68
2021/12/19 15:18:58;;;;;;;;;8.00;7.00;;;;;10.77;53.71;98297.88;6141305;28;96626;-67